sensor_id;sensor_type;location;lat;lon;timestamp;pressure;altitude;pressure_sealevel;temperature;humidity
21096;BME280;10706;49.036;12.112;2023-04-29T00:01:38;97372.66;;;9.69;100.00
21096;BME280;10706;49.036;12.112;2023-04-29T00:04:14;97366.03;;;9.72;100.00
21096;BME280;10706;49.036;12.112;2023-04-29T00:06:43;97362.09;;;9.75;100.00
21096;BME280;10706;49.036;12.112;2023-04-29T00:09:15;97360.56;;;9.79;100.00
21096;BME280;10706;49.036;12.112;2023-04-29T00:11:56;97364.59;;;9.81;100.00
21096;BME280;10706;49.036;12.112;2023-04-29T00:14:32;97356.38;;;9.83;100.00
21096;BME280;10706;49.036;12.112;2023-04-29T00:17:00;97359.59;;;9.85;100.00
21096;BME280;10706;49.036;12.112;2023-04-29T00:19:53;97351.59;;;9.85;100.00
21096;BME280;10706;49.036;12.112;2023-04-29T00:22:31;97353.25;;;9.86;100.00
21096;BME280;10706;49.036;12.112;2023-04-29T00:25:15;97351.59;;;9.85;100.00
21096;BME280;10706;49.036;12.112;2023-04-29T00:28:10;97338.78;;;9.82;100.00
21096;BME280;10706;49.036;12.112;2023-04-29T00:30:47;97340.59;;;9.81;100.00
21096;BME280;10706;49.036;12.112;2023-04-29T00:33:25;97343.69;;;9.73;100.00
21096;BME280;10706;49.036;12.112;2023-04-29T00:36:07;97338.56;;;9.71;100.00
21096;BME280;10706;49.036;12.112;2023-04-29T00:38:45;97344.25;;;9.75;100.00
21096;BME280;10706;49.036;12.112;2023-04-29T00:41:23;97337.59;;;9.78;100.00
21096;BME280;10706;49.036;12.112;2023-04-29T00:43:55;97339.00;;;9.80;100.00
21096;BME280;10706;49.036;12.112;2023-04-29T00:46:26;97340.59;;;9.81;100.00
21096;BME280;10706;49.036;12.112;2023-04-29T00:49:01;97339.81;;;9.81;100.00
21096;BME280;10706;49.036;12.112;2023-04-29T00:51:31;97336.81;;;9.77;100.00
21096;BME280;10706;49.036;12.112;2023-04-29T00:54:03;97338.09;;;9.75;100.00
21096;BME280;10706;49.036;12.112;2023-04-29T00:56:42;97330.81;;;9.70;100.00
21096;BME280;10706;49.036;12.112;2023-04-29T00:59:14;97335.09;;;9.71;100.00
21096;BME280;10706;49.036;12.112;2023-04-29T01:02:00;97337.53;;;9.72;100.00
21096;BME280;10706;49.036;12.112;2023-04-29T01:04:36;97338.34;;;9.73;100.00
21096;BME280;10706;49.036;12.112;2023-04-29T01:07:41;97334.94;;;9.78;100.00
21096;BME280;10706;49.036;12.112;2023-04-29T01:14:08;97352.91;;;9.82;100.00
21096;BME280;10706;49.036;12.112;2023-04-29T01:17:19;97342.47;;;9.81;100.00
21096;BME280;10706;49.036;12.112;2023-04-29T01:20:03;97341.91;;;9.79;100.00
21096;BME280;10706;49.036;12.112;2023-04-29T01:22:44;97335.69;;;9.73;100.00
21096;BME280;10706;49.036;12.112;2023-04-29T01:25:26;97326.63;;;9.74;100.00
21096;BME280;10706;49.036;12.112;2023-04-29T01:31:41;97343.78;;;9.78;100.00
21096;BME280;10706;49.036;12.112;2023-04-29T01:38:55;97340.25;;;9.89;100.00
21096;BME280;10706;49.036;12.112;2023-04-29T01:42:17;97337.16;;;9.81;100.00
21096;BME280;10706;49.036;12.112;2023-04-29T01:44:54;97337.94;;;9.81;100.00
21096;BME280;10706;49.036;12.112;2023-04-29T01:47:26;97334.47;;;9.81;100.00
21096;BME280;10706;49.036;12.112;2023-04-29T01:49:57;97341.19;;;9.83;100.00
21096;BME280;10706;49.036;12.112;2023-04-29T01:52:30;97330.78;;;9.82;100.00
21096;BME280;10706;49.036;12.112;2023-04-29T01:55:11;97321.63;;;9.78;100.00
21096;BME280;10706;49.036;12.112;2023-04-29T01:57:50;97333.44;;;9.82;100.00
21096;BME280;10706;49.036;12.112;2023-04-29T02:00:21;97340.38;;;9.83;100.00
21096;BME280;10706;49.036;12.112;2023-04-29T02:02:53;97332.59;;;9.81;100.00
21096;BME280;10706;49.036;12.112;2023-04-29T02:05:29;97332.53;;;9.76;100.00
21096;BME280;10706;49.036;12.112;2023-04-29T02:08:11;97334.94;;;9.78;100.00
21096;BME280;10706;49.036;12.112;2023-04-29T02:10:40;97337.47;;;9.84;100.00
21096;BME280;10706;49.036;12.112;2023-04-29T02:13:29;97333.44;;;9.82;100.00
21096;BME280;10706;49.036;12.112;2023-04-29T02:16:16;97332.84;;;9.80;100.00
21096;BME280;10706;49.036;12.112;2023-04-29T02:18:44;97342.47;;;9.81;100.00
21096;BME280;10706;49.036;12.112;2023-04-29T02:21:14;97350.25;;;9.82;100.00
21096;BME280;10706;49.036;12.112;2023-04-29T02:24:00;97360.75;;;9.89;100.00
21096;BME280;10706;49.036;12.112;2023-04-29T02:26:38;97349.59;;;9.92;100.00
21096;BME280;10706;49.036;12.112;2023-04-29T02:29:15;97349.78;;;9.85;100.00
21096;BME280;10706;49.036;12.112;2023-04-29T02:31:54;97338.28;;;9.85;100.00
21096;BME280;10706;49.036;12.112;2023-04-29T02:34:35;97347.34;;;9.84;100.00
21096;BME280;10706;49.036;12.112;2023-04-29T02:37:14;97346.59;;;9.88;100.00
21096;BME280;10706;49.036;12.112;2023-04-29T02:39:44;97333.50;;;9.87;100.00
21096;BME280;10706;49.036;12.112;2023-04-29T02:42:32;97329.00;;;9.87;100.00
21096;BME280;10706;49.036;12.112;2023-04-29T02:45:15;97327.59;;;9.85;100.00
21096;BME280;10706;49.036;12.112;2023-04-29T02:48:01;97324.72;;;9.86;100.00
21096;BME280;10706;49.036;12.112;2023-04-29T02:50:30;97329.25;;;9.86;100.00
21096;BME280;10706;49.036;12.112;2023-04-29T02:53:14;97329.00;;;9.87;100.00
21096;BME280;10706;49.036;12.112;2023-04-29T02:55:51;97338.94;;;9.92;100.00
21096;BME280;10706;49.036;12.112;2023-04-29T02:58:33;97336.03;;;9.93;100.00
21096;BME280;10706;49.036;12.112;2023-04-29T03:01:01;97336.03;;;9.93;100.00
21096;BME280;10706;49.036;12.112;2023-04-29T03:03:43;97331.81;;;9.98;100.00
21096;BME280;10706;49.036;12.112;2023-04-29T03:06:15;97330.47;;;9.95;100.00
21096;BME280;10706;49.036;12.112;2023-04-29T03:09:06;97325.44;;;9.82;100.00
21096;BME280;10706;49.036;12.112;2023-04-29T03:11:40;97331.25;;;9.79;100.00
21096;BME280;10706;49.036;12.112;2023-04-29T03:14:24;97330.19;;;9.80;100.00
21096;BME280;10706;49.036;12.112;2023-04-29T03:16:58;97327.13;;;9.71;100.00
21096;BME280;10706;49.036;12.112;2023-04-29T03:19:26;97330.47;;;9.66;100.00
21096;BME280;10706;49.036;12.112;2023-04-29T03:21:54;97332.56;;;9.64;100.00
21096;BME280;10706;49.036;12.112;2023-04-29T03:24:23;97324.91;;;9.68;100.00
21096;BME280;10706;49.036;12.112;2023-04-29T03:27:00;97334.03;;;9.72;100.00
21096;BME280;10706;49.036;12.112;2023-04-29T03:29:29;97330.13;;;9.75;100.00
21096;BME280;10706;49.036;12.112;2023-04-29T03:32:06;97329.16;;;9.81;100.00
21096;BME280;10706;49.036;12.112;2023-04-29T03:34:35;97330.78;;;9.82;100.00
21096;BME280;10706;49.036;12.112;2023-04-29T03:37:08;97322.38;;;9.90;100.00
21096;BME280;10706;49.036;12.112;2023-04-29T03:39:37;97325.84;;;9.90;100.00
21096;BME280;10706;49.036;12.112;2023-04-29T03:42:10;97320.91;;;9.82;100.00
21096;BME280;10706;49.036;12.112;2023-04-29T03:44:48;97322.78;;;9.82;100.00
21096;BME280;10706;49.036;12.112;2023-04-29T03:47:32;97326.47;;;9.81;100.00
21096;BME280;10706;49.036;12.112;2023-04-29T03:50:13;97335.38;;;9.86;100.00
21096;BME280;10706;49.036;12.112;2023-04-29T03:52:53;97323.75;;;9.92;100.00
21096;BME280;10706;49.036;12.112;2023-04-29T03:55:29;97326.72;;;9.96;100.00
21096;BME280;10706;49.036;12.112;2023-04-29T03:58:00;97331.03;;;9.97;100.00
21096;BME280;10706;49.036;12.112;2023-04-29T04:00:38;97330.78;;;9.99;100.00
21096;BME280;10706;49.036;12.112;2023-04-29T04:03:18;97331.69;;;10.04;100.00
21096;BME280;10706;49.036;12.112;2023-04-29T04:06:00;97338.38;;;10.07;100.00
21096;BME280;10706;49.036;12.112;2023-04-29T04:08:36;97341.38;;;10.10;100.00
21096;BME280;10706;49.036;12.112;2023-04-29T04:11:24;97344.63;;;10.12;100.00
21096;BME280;10706;49.036;12.112;2023-04-29T04:14:14;97334.75;;;10.13;100.00
21096;BME280;10706;49.036;12.112;2023-04-29T04:17:06;97338.16;;;10.08;100.00
21096;BME280;10706;49.036;12.112;2023-04-29T04:19:51;97342.03;;;10.01;100.00
21096;BME280;10706;49.036;12.112;2023-04-29T04:22:21;97349.19;;;10.00;100.00
21096;BME280;10706;49.036;12.112;2023-04-29T04:25:17;97359.41;;;10.03;100.00
21096;BME280;10706;49.036;12.112;2023-04-29T04:27:48;97352.38;;;10.14;100.00
21096;BME280;10706;49.036;12.112;2023-04-29T04:30:29;97345.59;;;10.06;100.00
21096;BME280;10706;49.036;12.112;2023-04-29T04:33:04;97349.63;;;10.09;100.00
21096;BME280;10706;49.036;12.112;2023-04-29T04:35:33;97347.69;;;10.04;100.00
21096;BME280;10706;49.036;12.112;2023-04-29T04:38:06;97345.50;;;10.01;100.00
21096;BME280;10706;49.036;12.112;2023-04-29T04:40:39;97338.47;;;9.95;100.00
21096;BME280;10706;49.036;12.112;2023-04-29T04:43:19;97350.97;;;9.95;100.00
21096;BME280;10706;49.036;12.112;2023-04-29T04:45:48;97357.50;;;9.87;100.00
21096;BME280;10706;49.036;12.112;2023-04-29T04:48:17;97351.94;;;9.88;100.00
21096;BME280;10706;49.036;12.112;2023-04-29T04:50:51;97349.13;;;9.95;100.00
21096;BME280;10706;49.036;12.112;2023-04-29T04:53:21;97352.38;;;9.97;100.00
21096;BME280;10706;49.036;12.112;2023-04-29T04:56:04;97351.56;;;9.97;100.00
21096;BME280;10706;49.036;12.112;2023-04-29T04:59:22;97348.16;;;10.01;100.00
21096;BME280;10706;49.036;12.112;2023-04-29T05:01:59;97358.25;;;9.99;100.00
21096;BME280;10706;49.036;12.112;2023-04-29T05:04:32;97366.25;;;9.99;100.00
21096;BME280;10706;49.036;12.112;2023-04-29T05:06:58;97362.41;;;10.07;100.00
21096;BME280;10706;49.036;12.112;2023-04-29T05:09:24;97360.22;;;10.21;100.00
21096;BME280;10706;49.036;12.112;2023-04-29T05:11:51;97361.06;;;10.38;100.00
21096;BME280;10706;49.036;12.112;2023-04-29T05:14:17;97360.31;;;10.60;100.00
21096;BME280;10706;49.036;12.112;2023-04-29T05:16:43;97361.28;;;10.70;100.00
21096;BME280;10706;49.036;12.112;2023-04-29T05:19:11;97365.47;;;10.83;100.00
21096;BME280;10706;49.036;12.112;2023-04-29T05:21:37;97357.38;;;10.78;100.00
21096;BME280;10706;49.036;12.112;2023-04-29T05:24:03;97361.59;;;10.74;100.00
21096;BME280;10706;49.036;12.112;2023-04-29T05:26:28;97363.72;;;10.72;100.00
21096;BME280;10706;49.036;12.112;2023-04-29T05:28:54;97378.19;;;10.76;100.00
21096;BME280;10706;49.036;12.112;2023-04-29T05:31:20;97375.66;;;10.86;100.00
21096;BME280;10706;49.036;12.112;2023-04-29T05:33:46;97386.97;;;10.94;100.00
21096;BME280;10706;49.036;12.112;2023-04-29T05:36:11;97380.31;;;11.13;100.00
21096;BME280;10706;49.036;12.112;2023-04-29T05:38:40;97383.09;;;11.23;100.00
21096;BME280;10706;49.036;12.112;2023-04-29T05:41:06;97379.78;;;11.16;100.00
21096;BME280;10706;49.036;12.112;2023-04-29T05:43:31;97387.44;;;11.07;100.00
21096;BME280;10706;49.036;12.112;2023-04-29T05:45:57;97390.28;;;11.01;100.00
21096;BME280;10706;49.036;12.112;2023-04-29T05:48:23;97391.31;;;11.00;100.00
21096;BME280;10706;49.036;12.112;2023-04-29T05:50:49;97390.34;;;11.06;100.00
21096;BME280;10706;49.036;12.112;2023-04-29T05:53:15;97399.50;;;11.10;100.00
21096;BME280;10706;49.036;12.112;2023-04-29T05:55:41;97395.66;;;11.23;100.00
21096;BME280;10706;49.036;12.112;2023-04-29T05:58:10;97403.44;;;11.24;100.00
21096;BME280;10706;49.036;12.112;2023-04-29T06:00:36;97403.69;;;11.45;100.00
21096;BME280;10706;49.036;12.112;2023-04-29T06:03:01;97408.59;;;11.53;100.00
21096;BME280;10706;49.036;12.112;2023-04-29T06:05:27;97414.59;;;11.65;100.00
21096;BME280;10706;49.036;12.112;2023-04-29T06:07:53;97421.25;;;11.63;100.00
21096;BME280;10706;49.036;12.112;2023-04-29T06:10:18;97416.09;;;11.78;100.00
21096;BME280;10706;49.036;12.112;2023-04-29T06:12:44;97416.59;;;11.75;100.00
21096;BME280;10706;49.036;12.112;2023-04-29T06:15:11;97419.78;;;11.50;100.00
21096;BME280;10706;49.036;12.112;2023-04-29T06:17:37;97428.88;;;11.49;100.00
21096;BME280;10706;49.036;12.112;2023-04-29T06:20:03;97426.69;;;11.68;100.00
21096;BME280;10706;49.036;12.112;2023-04-29T06:22:29;97421.13;;;11.75;100.00
21096;BME280;10706;49.036;12.112;2023-04-29T06:24:55;97425.63;;;11.91;100.00
21096;BME280;10706;49.036;12.112;2023-04-29T06:27:20;97433.06;;;11.89;100.00
21096;BME280;10706;49.036;12.112;2023-04-29T06:29:46;97440.16;;;12.00;100.00
21096;BME280;10706;49.036;12.112;2023-04-29T06:32:12;97440.53;;;12.09;100.00
21096;BME280;10706;49.036;12.112;2023-04-29T06:34:38;97439.47;;;12.10;100.00
21096;BME280;10706;49.036;12.112;2023-04-29T06:37:04;97443.31;;;12.19;100.00
21096;BME280;10706;49.036;12.112;2023-04-29T06:39:30;97446.06;;;12.02;100.00
21096;BME280;10706;49.036;12.112;2023-04-29T06:41:56;97443.16;;;12.04;100.00
21096;BME280;10706;49.036;12.112;2023-04-29T06:44:23;97446.00;;;12.52;100.00
21096;BME280;10706;49.036;12.112;2023-04-29T06:46:49;97449.06;;;12.98;100.00
21096;BME280;10706;49.036;12.112;2023-04-29T06:49:14;97454.81;;;12.47;100.00
21096;BME280;10706;49.036;12.112;2023-04-29T06:51:40;97450.25;;;12.48;100.00
21096;BME280;10706;49.036;12.112;2023-04-29T06:54:07;97448.06;;;12.39;100.00
21096;BME280;10706;49.036;12.112;2023-04-29T06:56:33;97445.94;;;12.41;100.00
21096;BME280;10706;49.036;12.112;2023-04-29T06:58:59;97446.00;;;12.52;100.00
21096;BME280;10706;49.036;12.112;2023-04-29T07:01:24;97443.78;;;12.71;100.00
21096;BME280;10706;49.036;12.112;2023-04-29T07:03:50;97447.66;;;12.90;100.00
21096;BME280;10706;49.036;12.112;2023-04-29T07:06:16;97454.16;;;12.99;100.00
21096;BME280;10706;49.036;12.112;2023-04-29T07:08:42;97459.47;;;12.94;100.00
21096;BME280;10706;49.036;12.112;2023-04-29T07:11:08;97456.69;;;13.16;100.00
21096;BME280;10706;49.036;12.112;2023-04-29T07:13:34;97468.22;;;13.59;99.62
21096;BME280;10706;49.036;12.112;2023-04-29T07:15:59;97462.97;;;13.90;98.26
21096;BME280;10706;49.036;12.112;2023-04-29T07:18:25;97465.25;;;14.50;97.12
21096;BME280;10706;49.036;12.112;2023-04-29T07:20:51;97466.91;;;14.87;95.09
21096;BME280;10706;49.036;12.112;2023-04-29T07:23:17;97465.00;;;14.56;93.35
21096;BME280;10706;49.036;12.112;2023-04-29T07:25:43;97471.16;;;14.36;92.77
21096;BME280;10706;49.036;12.112;2023-04-29T07:28:09;97473.06;;;14.51;92.54
21096;BME280;10706;49.036;12.112;2023-04-29T07:30:35;97466.63;;;14.63;92.15
21096;BME280;10706;49.036;12.112;2023-04-29T07:33:00;97474.91;;;14.56;90.81
21096;BME280;10706;49.036;12.112;2023-04-29T07:35:26;97473.28;;;14.34;88.91
21096;BME280;10706;49.036;12.112;2023-04-29T07:37:52;97473.28;;;14.29;88.05
21096;BME280;10706;49.036;12.112;2023-04-29T07:40:19;97477.53;;;14.15;88.75
21096;BME280;10706;49.036;12.112;2023-04-29T07:42:45;97481.31;;;14.24;88.83
21096;BME280;10706;49.036;12.112;2023-04-29T07:45:10;97472.41;;;14.03;89.33
21096;BME280;10706;49.036;12.112;2023-04-29T07:47:38;97478.34;;;14.20;90.95
21096;BME280;10706;49.036;12.112;2023-04-29T07:50:05;97484.31;;;14.38;88.70
21096;BME280;10706;49.036;12.112;2023-04-29T07:52:31;97485.72;;;14.76;84.31
21096;BME280;10706;49.036;12.112;2023-04-29T07:54:56;97482.47;;;14.69;83.68
21096;BME280;10706;49.036;12.112;2023-04-29T07:57:22;97477.91;;;14.75;81.56
21096;BME280;10706;49.036;12.112;2023-04-29T07:59:54;97484.91;;;14.66;82.97
21096;BME280;10706;49.036;12.112;2023-04-29T08:02:20;97487.88;;;14.64;82.07
21096;BME280;10706;49.036;12.112;2023-04-29T08:04:46;97494.31;;;14.78;81.48
21096;BME280;10706;49.036;12.112;2023-04-29T08:07:12;97488.66;;;15.21;85.51
21096;BME280;10706;49.036;12.112;2023-04-29T08:09:38;97504.44;;;15.74;83.56
21096;BME280;10706;49.036;12.112;2023-04-29T08:12:04;97487.75;;;15.67;80.68
21096;BME280;10706;49.036;12.112;2023-04-29T08:14:30;97494.72;;;15.78;82.62
21096;BME280;10706;49.036;12.112;2023-04-29T08:16:55;97498.44;;;15.92;81.70
21096;BME280;10706;49.036;12.112;2023-04-29T08:19:21;97494.72;;;15.78;83.30
21096;BME280;10706;49.036;12.112;2023-04-29T08:21:47;97493.38;;;15.65;82.47
21096;BME280;10706;49.036;12.112;2023-04-29T08:24:13;97497.47;;;15.52;83.71
21096;BME280;10706;49.036;12.112;2023-04-29T08:26:39;97495.06;;;15.41;86.10
21096;BME280;10706;49.036;12.112;2023-04-29T08:29:06;97503.94;;;15.46;85.00
21096;BME280;10706;49.036;12.112;2023-04-29T08:31:50;97506.53;;;15.98;85.61
21096;BME280;10706;49.036;12.112;2023-04-29T08:34:25;97490.88;;;16.49;83.32
21096;BME280;10706;49.036;12.112;2023-04-29T08:36:51;97488.72;;;16.91;81.85
21096;BME280;10706;49.036;12.112;2023-04-29T08:39:17;97484.13;;;16.92;77.72
21096;BME280;10706;49.036;12.112;2023-04-29T08:41:43;97489.53;;;16.52;81.09
21096;BME280;10706;49.036;12.112;2023-04-29T08:44:14;97493.06;;;16.87;77.60
21096;BME280;10706;49.036;12.112;2023-04-29T08:46:44;97480.03;;;16.99;74.96
21096;BME280;10706;49.036;12.112;2023-04-29T08:49:11;97496.22;;;16.60;74.84
21096;BME280;10706;49.036;12.112;2023-04-29T08:51:38;97501.47;;;16.41;76.38
21096;BME280;10706;49.036;12.112;2023-04-29T08:54:04;97497.41;;;16.38;75.28
21096;BME280;10706;49.036;12.112;2023-04-29T08:56:31;97490.03;;;16.54;74.41
21096;BME280;10706;49.036;12.112;2023-04-29T08:58:58;97494.47;;;16.35;72.98
21096;BME280;10706;49.036;12.112;2023-04-29T09:01:28;97491.25;;;16.32;72.95
21096;BME280;10706;49.036;12.112;2023-04-29T09:04:20;97499.28;;;15.72;71.47
21096;BME280;10706;49.036;12.112;2023-04-29T09:06:55;97502.28;;;15.76;71.87
21096;BME280;10706;49.036;12.112;2023-04-29T09:09:23;97491.78;;;15.64;73.15
21096;BME280;10706;49.036;12.112;2023-04-29T09:11:49;97501.22;;;15.62;73.84
21096;BME280;10706;49.036;12.112;2023-04-29T09:14:15;97502.09;;;15.26;74.73
21096;BME280;10706;49.036;12.112;2023-04-29T09:16:41;97500.78;;;15.13;75.40
21096;BME280;10706;49.036;12.112;2023-04-29T09:19:07;97501.31;;;15.21;74.72
21096;BME280;10706;49.036;12.112;2023-04-29T09:21:33;97498.28;;;15.53;75.80
21096;BME280;10706;49.036;12.112;2023-04-29T09:24:01;97497.13;;;15.85;73.86
21096;BME280;10706;49.036;12.112;2023-04-29T09:26:40;97497.94;;;15.85;73.43
21096;BME280;10706;49.036;12.112;2023-04-29T09:29:09;97501.81;;;16.24;73.28
21096;BME280;10706;49.036;12.112;2023-04-29T09:31:37;97497.09;;;16.89;68.92
21096;BME280;10706;49.036;12.112;2023-04-29T09:34:07;97499.06;;;16.74;69.06
21096;BME280;10706;49.036;12.112;2023-04-29T09:39:09;97490.94;;;17.13;66.07
21096;BME280;10706;49.036;12.112;2023-04-29T09:41:59;97499.22;;;16.53;68.94
21096;BME280;10706;49.036;12.112;2023-04-29T09:44:29;97502.91;;;16.67;68.81
21096;BME280;10706;49.036;12.112;2023-04-29T09:49:27;97509.59;;;17.09;68.36
21096;BME280;10706;49.036;12.112;2023-04-29T09:52:00;97506.59;;;17.16;65.47
21096;BME280;10706;49.036;12.112;2023-04-29T09:54:33;97502.09;;;17.06;66.65
21096;BME280;10706;49.036;12.112;2023-04-29T09:57:01;97507.84;;;16.95;63.51
21096;BME280;10706;49.036;12.112;2023-04-29T09:59:31;97505.41;;;16.54;65.22
21096;BME280;10706;49.036;12.112;2023-04-29T10:02:01;97520.69;;;16.19;67.04
21096;BME280;10706;49.036;12.112;2023-04-29T10:04:34;97512.38;;;16.10;68.73
21096;BME280;10706;49.036;12.112;2023-04-29T10:07:01;97525.63;;;16.01;68.33
21096;BME280;10706;49.036;12.112;2023-04-29T10:09:27;97516.78;;;15.90;69.57
21096;BME280;10706;49.036;12.112;2023-04-29T10:11:54;97522.34;;;16.09;69.95
21096;BME280;10706;49.036;12.112;2023-04-29T10:14:22;97512.06;;;16.66;66.58
21096;BME280;10706;49.036;12.112;2023-04-29T10:17:02;97521.88;;;16.52;67.61
21096;BME280;10706;49.036;12.112;2023-04-29T10:19:57;97519.91;;;16.63;65.61
21096;BME280;10706;49.036;12.112;2023-04-29T10:22:39;97529.44;;;16.45;67.59
21096;BME280;10706;49.036;12.112;2023-04-29T10:25:10;97526.00;;;16.34;66.89
21096;BME280;10706;49.036;12.112;2023-04-29T10:27:37;97526.88;;;16.19;67.96
21096;BME280;10706;49.036;12.112;2023-04-29T10:30:05;97534.44;;;16.17;69.67
21096;BME280;10706;49.036;12.112;2023-04-29T10:32:34;97536.66;;;16.05;67.90
21096;BME280;10706;49.036;12.112;2023-04-29T10:35:05;97535.03;;;15.99;71.08
21096;BME280;10706;49.036;12.112;2023-04-29T10:37:36;97531.78;;;16.07;68.16
21096;BME280;10706;49.036;12.112;2023-04-29T10:42:44;97544.25;;;15.72;69.45
21096;BME280;10706;49.036;12.112;2023-04-29T10:48:11;97536.19;;;15.67;70.29
21096;BME280;10706;49.036;12.112;2023-04-29T10:53:13;97536.72;;;15.69;69.31
21096;BME280;10706;49.036;12.112;2023-04-29T10:55:40;97534.56;;;15.86;69.56
21096;BME280;10706;49.036;12.112;2023-04-29T11:01:01;97527.59;;;15.65;70.10
21096;BME280;10706;49.036;12.112;2023-04-29T11:03:54;97535.63;;;15.90;70.43
21096;BME280;10706;49.036;12.112;2023-04-29T11:06:37;97531.53;;;16.58;66.82
21096;BME280;10706;49.036;12.112;2023-04-29T11:09:35;97520.00;;;16.92;65.08
21096;BME280;10706;49.036;12.112;2023-04-29T11:12:08;97522.59;;;17.37;62.27
21096;BME280;10706;49.036;12.112;2023-04-29T11:14:57;97516.75;;;17.54;59.56
21096;BME280;10706;49.036;12.112;2023-04-29T11:17:34;97518.59;;;17.82;59.66
21096;BME280;10706;49.036;12.112;2023-04-29T11:20:01;97519.66;;;17.86;59.23
21096;BME280;10706;49.036;12.112;2023-04-29T11:22:28;97507.78;;;17.82;60.41
21096;BME280;10706;49.036;12.112;2023-04-29T11:25:16;97512.88;;;18.13;60.28
21096;BME280;10706;49.036;12.112;2023-04-29T11:27:42;97509.28;;;18.18;58.13
21096;BME280;10706;49.036;12.112;2023-04-29T11:30:10;97521.13;;;17.49;61.09
21096;BME280;10706;49.036;12.112;2023-04-29T11:32:39;97521.47;;;17.67;59.76
21096;BME280;10706;49.036;12.112;2023-04-29T11:35:17;97525.09;;;16.99;61.19
21096;BME280;10706;49.036;12.112;2023-04-29T11:37:45;97525.84;;;16.65;63.24
21096;BME280;10706;49.036;12.112;2023-04-29T11:40:14;97527.63;;;16.35;64.83
21096;BME280;10706;49.036;12.112;2023-04-29T11:42:44;97522.53;;;16.28;62.70
21096;BME280;10706;49.036;12.112;2023-04-29T11:45:10;97528.44;;;16.30;62.50
21096;BME280;10706;49.036;12.112;2023-04-29T11:47:36;97529.97;;;16.52;62.46
21096;BME280;10706;49.036;12.112;2023-04-29T11:50:08;97530.88;;;16.77;61.94
21096;BME280;10706;49.036;12.112;2023-04-29T11:52:37;97526.81;;;17.48;58.42
21096;BME280;10706;49.036;12.112;2023-04-29T11:55:04;97528.16;;;17.16;60.55
21096;BME280;10706;49.036;12.112;2023-04-29T11:57:30;97525.75;;;17.15;61.01
21096;BME280;10706;49.036;12.112;2023-04-29T11:59:59;97538.78;;;17.02;62.61
21096;BME280;10706;49.036;12.112;2023-04-29T12:02:33;97543.28;;;17.46;57.90
21096;BME280;10706;49.036;12.112;2023-04-29T12:05:00;97546.41;;;17.29;57.98
21096;BME280;10706;49.036;12.112;2023-04-29T12:07:30;97543.34;;;16.67;60.69
21096;BME280;10706;49.036;12.112;2023-04-29T12:09:55;97552.38;;;16.42;63.72
21096;BME280;10706;49.036;12.112;2023-04-29T12:12:22;97553.19;;;16.38;63.10
21096;BME280;10706;49.036;12.112;2023-04-29T12:14:48;97568.16;;;16.04;62.50
21096;BME280;10706;49.036;12.112;2023-04-29T12:17:15;97561.00;;;15.43;61.98
21096;BME280;10706;49.036;12.112;2023-04-29T12:19:42;97566.94;;;15.25;64.02
21096;BME280;10706;49.036;12.112;2023-04-29T12:22:08;97570.16;;;15.16;64.95
21096;BME280;10706;49.036;12.112;2023-04-29T12:24:38;97562.38;;;15.15;65.12
21096;BME280;10706;49.036;12.112;2023-04-29T12:27:08;97558.88;;;15.09;66.58
21096;BME280;10706;49.036;12.112;2023-04-29T12:29:36;97560.72;;;14.93;67.95
21096;BME280;10706;49.036;12.112;2023-04-29T12:32:02;97558.59;;;15.06;67.30
21096;BME280;10706;49.036;12.112;2023-04-29T12:34:30;97561.53;;;14.94;67.22
21096;BME280;10706;49.036;12.112;2023-04-29T12:36:58;97563.69;;;14.97;68.13
21096;BME280;10706;49.036;12.112;2023-04-29T12:39:26;97569.63;;;15.30;67.17
21096;BME280;10706;49.036;12.112;2023-04-29T12:41:57;97562.56;;;15.60;65.10
21096;BME280;10706;49.036;12.112;2023-04-29T12:44:24;97560.72;;;15.60;66.03
21096;BME280;10706;49.036;12.112;2023-04-29T12:46:51;97561.19;;;15.93;64.49
21096;BME280;10706;49.036;12.112;2023-04-29T12:49:24;97562.69;;;16.25;63.92
21096;BME280;10706;49.036;12.112;2023-04-29T12:51:49;97555.91;;;16.87;59.13
21096;BME280;10706;49.036;12.112;2023-04-29T12:54:15;97556.97;;;17.26;58.77
21096;BME280;10706;49.036;12.112;2023-04-29T12:56:41;97549.69;;;17.80;56.52
21096;BME280;10706;49.036;12.112;2023-04-29T12:59:08;97549.13;;;18.07;58.44
21096;BME280;10706;49.036;12.112;2023-04-29T13:01:35;97550.84;;;18.22;56.70
21096;BME280;10706;49.036;12.112;2023-04-29T13:04:01;97543.06;;;17.96;55.83
21096;BME280;10706;49.036;12.112;2023-04-29T13:06:27;97551.47;;;18.38;53.74
21096;BME280;10706;49.036;12.112;2023-04-29T13:08:53;97553.34;;;18.80;52.54
21096;BME280;10706;49.036;12.112;2023-04-29T13:11:19;97548.00;;;18.56;53.26
21096;BME280;10706;49.036;12.112;2023-04-29T13:13:45;97556.81;;;17.41;55.89
21096;BME280;10706;49.036;12.112;2023-04-29T13:16:11;97549.28;;;17.09;57.68
21096;BME280;10706;49.036;12.112;2023-04-29T13:18:36;97550.50;;;17.51;58.31
21096;BME280;10706;49.036;12.112;2023-04-29T13:21:02;97551.22;;;17.62;57.41
21096;BME280;10706;49.036;12.112;2023-04-29T13:23:28;97547.81;;;17.51;57.39
21096;BME280;10706;49.036;12.112;2023-04-29T13:25:54;97551.94;;;17.43;57.01
21096;BME280;10706;49.036;12.112;2023-04-29T13:28:19;97544.44;;;17.40;56.80
21096;BME280;10706;49.036;12.112;2023-04-29T13:30:46;97551.06;;;17.19;56.51
21096;BME280;10706;49.036;12.112;2023-04-29T13:33:12;97552.00;;;17.04;58.21
21096;BME280;10706;49.036;12.112;2023-04-29T13:35:38;97547.03;;;16.82;57.47
21096;BME280;10706;49.036;12.112;2023-04-29T13:38:08;97543.38;;;17.02;57.57
21096;BME280;10706;49.036;12.112;2023-04-29T13:40:34;97537.22;;;17.31;55.37